sensor_id;sensor_type;location;lat;lon;timestamp;P1;durP1;ratioP1;P2;durP2;ratioP2
22904;SDS011;11619;50.140;8.518;2023-12-20T00:01:55;8.75;;;7.60;;
22904;SDS011;11619;50.140;8.518;2023-12-20T00:04:22;9.60;;;8.00;;
22904;SDS011;11619;50.140;8.518;2023-12-20T00:06:49;9.63;;;8.63;;
22904;SDS011;11619;50.140;8.518;2023-12-20T00:09:15;8.85;;;7.95;;
22904;SDS011;11619;50.140;8.518;2023-12-20T00:11:42;8.05;;;7.22;;
22904;SDS011;11619;50.140;8.518;2023-12-20T00:14:09;9.18;;;7.85;;
22904;SDS011;11619;50.140;8.518;2023-12-20T00:16:35;8.65;;;7.15;;
22904;SDS011;11619;50.140;8.518;2023-12-20T00:19:02;8.18;;;7.38;;
22904;SDS011;11619;50.140;8.518;2023-12-20T00:21:28;9.45;;;7.45;;
22904;SDS011;11619;50.140;8.518;2023-12-20T00:23:55;10.20;;;7.20;;
22904;SDS011;11619;50.140;8.518;2023-12-20T00:26:21;9.13;;;8.05;;
22904;SDS011;11619;50.140;8.518;2023-12-20T00:28:48;8.65;;;7.82;;
22904;SDS011;11619;50.140;8.518;2023-12-20T00:31:14;9.60;;;8.10;;
22904;SDS011;11619;50.140;8.518;2023-12-20T00:33:41;9.38;;;8.15;;
22904;SDS011;11619;50.140;8.518;2023-12-20T00:36:10;9.38;;;8.45;;
22904;SDS011;11619;50.140;8.518;2023-12-20T00:38:36;9.63;;;8.38;;
22904;SDS011;11619;50.140;8.518;2023-12-20T00:41:03;8.23;;;7.40;;
22904;SDS011;11619;50.140;8.518;2023-12-20T00:43:29;8.80;;;7.90;;
22904;SDS011;11619;50.140;8.518;2023-12-20T00:45:55;8.60;;;7.78;;
22904;SDS011;11619;50.140;8.518;2023-12-20T00:48:23;8.18;;;7.38;;
22904;SDS011;11619;50.140;8.518;2023-12-20T00:50:49;8.98;;;8.07;;
22904;SDS011;11619;50.140;8.518;2023-12-20T00:53:16;9.00;;;7.85;;
22904;SDS011;11619;50.140;8.518;2023-12-20T00:55:42;11.18;;;8.73;;
22904;SDS011;11619;50.140;8.518;2023-12-20T00:58:10;9.50;;;8.45;;
22904;SDS011;11619;50.140;8.518;2023-12-20T01:00:37;8.75;;;7.78;;
22904;SDS011;11619;50.140;8.518;2023-12-20T01:03:05;9.77;;;8.65;;
22904;SDS011;11619;50.140;8.518;2023-12-20T01:05:32;9.85;;;8.32;;
22904;SDS011;11619;50.140;8.518;2023-12-20T01:07:58;8.93;;;8.02;;
22904;SDS011;11619;50.140;8.518;2023-12-20T01:10:24;9.93;;;8.70;;
22904;SDS011;11619;50.140;8.518;2023-12-20T01:12:54;8.90;;;7.57;;
22904;SDS011;11619;50.140;8.518;2023-12-20T01:15:20;10.68;;;8.55;;
22904;SDS011;11619;50.140;8.518;2023-12-20T01:17:47;8.75;;;7.93;;
22904;SDS011;11619;50.140;8.518;2023-12-20T01:20:14;8.45;;;7.53;;
22904;SDS011;11619;50.140;8.518;2023-12-20T01:22:40;10.60;;;8.40;;
22904;SDS011;11619;50.140;8.518;2023-12-20T01:25:08;11.10;;;8.32;;
22904;SDS011;11619;50.140;8.518;2023-12-20T01:27:35;8.98;;;8.10;;
22904;SDS011;11619;50.140;8.518;2023-12-20T01:30:01;8.75;;;7.85;;
22904;SDS011;11619;50.140;8.518;2023-12-20T01:32:28;9.77;;;8.77;;
22904;SDS011;11619;50.140;8.518;2023-12-20T01:34:55;8.55;;;7.75;;
22904;SDS011;11619;50.140;8.518;2023-12-20T01:37:26;10.45;;;8.77;;
22904;SDS011;11619;50.140;8.518;2023-12-20T01:39:55;8.80;;;7.90;;
22904;SDS011;11619;50.140;8.518;2023-12-20T01:42:22;10.35;;;8.05;;
22904;SDS011;11619;50.140;8.518;2023-12-20T01:44:48;8.93;;;7.88;;
22904;SDS011;11619;50.140;8.518;2023-12-20T01:47:14;8.80;;;7.90;;
22904;SDS011;11619;50.140;8.518;2023-12-20T01:49:41;8.52;;;7.13;;
22904;SDS011;11619;50.140;8.518;2023-12-20T01:52:08;8.38;;;7.57;;
22904;SDS011;11619;50.140;8.518;2023-12-20T01:54:38;8.90;;;8.10;;
22904;SDS011;11619;50.140;8.518;2023-12-20T01:57:05;8.77;;;7.88;;
22904;SDS011;11619;50.140;8.518;2023-12-20T01:59:32;9.75;;;7.95;;
22904;SDS011;11619;50.140;8.518;2023-12-20T02:01:59;8.63;;;7.82;;
22904;SDS011;11619;50.140;8.518;2023-12-20T02:04:26;8.02;;;7.22;;
22904;SDS011;11619;50.140;8.518;2023-12-20T02:06:53;8.82;;;7.78;;
22904;SDS011;11619;50.140;8.518;2023-12-20T02:09:20;8.68;;;7.50;;
22904;SDS011;11619;50.140;8.518;2023-12-20T02:11:46;8.55;;;7.75;;
22904;SDS011;11619;50.140;8.518;2023-12-20T02:14:13;9.18;;;7.88;;
22904;SDS011;11619;50.140;8.518;2023-12-20T02:16:39;9.40;;;8.38;;
22904;SDS011;11619;50.140;8.518;2023-12-20T02:19:07;8.65;;;7.85;;
22904;SDS011;11619;50.140;8.518;2023-12-20T02:21:39;9.20;;;7.90;;
22904;SDS011;11619;50.140;8.518;2023-12-20T02:24:06;9.02;;;8.13;;
22904;SDS011;11619;50.140;8.518;2023-12-20T02:26:33;8.82;;;7.97;;
22904;SDS011;11619;50.140;8.518;2023-12-20T02:28:59;8.43;;;7.63;;
22904;SDS011;11619;50.140;8.518;2023-12-20T02:31:26;7.57;;;6.85;;
22904;SDS011;11619;50.140;8.518;2023-12-20T02:33:53;8.13;;;6.65;;
22904;SDS011;11619;50.140;8.518;2023-12-20T02:36:19;8.02;;;7.22;;
22904;SDS011;11619;50.140;8.518;2023-12-20T02:38:46;6.82;;;6.22;;
22904;SDS011;11619;50.140;8.518;2023-12-20T02:41:13;7.63;;;6.65;;
22904;SDS011;11619;50.140;8.518;2023-12-20T02:43:40;6.82;;;6.13;;
22904;SDS011;11619;50.140;8.518;2023-12-20T02:46:06;8.10;;;6.93;;
22904;SDS011;11619;50.140;8.518;2023-12-20T02:48:33;7.88;;;6.47;;
22904;SDS011;11619;50.140;8.518;2023-12-20T02:50:59;7.18;;;6.47;;
22904;SDS011;11619;50.140;8.518;2023-12-20T02:53:26;7.32;;;6.55;;
22904;SDS011;11619;50.140;8.518;2023-12-20T02:55:52;7.25;;;6.55;;
22904;SDS011;11619;50.140;8.518;2023-12-20T02:58:18;7.03;;;6.40;;
22904;SDS011;11619;50.140;8.518;2023-12-20T03:00:45;7.32;;;6.47;;
22904;SDS011;11619;50.140;8.518;2023-12-20T03:03:12;7.30;;;6.50;;
22904;SDS011;11619;50.140;8.518;2023-12-20T03:05:38;8.00;;;6.50;;
22904;SDS011;11619;50.140;8.518;2023-12-20T03:08:05;8.57;;;6.28;;
22904;SDS011;11619;50.140;8.518;2023-12-20T03:10:31;6.97;;;6.28;;
22904;SDS011;11619;50.140;8.518;2023-12-20T03:12:58;6.43;;;5.82;;
22904;SDS011;11619;50.140;8.518;2023-12-20T03:15:24;7.20;;;6.47;;
22904;SDS011;11619;50.140;8.518;2023-12-20T03:17:50;7.15;;;5.97;;
22904;SDS011;11619;50.140;8.518;2023-12-20T03:20:17;6.28;;;5.65;;
22904;SDS011;11619;50.140;8.518;2023-12-20T03:22:44;6.72;;;5.60;;
22904;SDS011;11619;50.140;8.518;2023-12-20T03:25:10;6.50;;;5.90;;
22904;SDS011;11619;50.140;8.518;2023-12-20T03:27:37;7.18;;;6.47;;
22904;SDS011;11619;50.140;8.518;2023-12-20T03:30:05;6.32;;;5.72;;
22904;SDS011;11619;50.140;8.518;2023-12-20T03:32:32;6.07;;;5.20;;
22904;SDS011;11619;50.140;8.518;2023-12-20T03:34:58;6.45;;;5.85;;
22904;SDS011;11619;50.140;8.518;2023-12-20T03:37:25;8.32;;;5.43;;
22904;SDS011;11619;50.140;8.518;2023-12-20T03:39:51;5.93;;;5.30;;
22904;SDS011;11619;50.140;8.518;2023-12-20T03:42:18;5.22;;;4.72;;
22904;SDS011;11619;50.140;8.518;2023-12-20T03:44:44;5.70;;;4.80;;
22904;SDS011;11619;50.140;8.518;2023-12-20T03:47:11;5.50;;;5.00;;
22904;SDS011;11619;50.140;8.518;2023-12-20T03:49:37;5.32;;;4.82;;
22904;SDS011;11619;50.140;8.518;2023-12-20T03:52:05;5.10;;;4.22;;
22904;SDS011;11619;50.140;8.518;2023-12-20T03:54:31;5.28;;;4.78;;
22904;SDS011;11619;50.140;8.518;2023-12-20T03:56:59;5.00;;;4.60;;
22904;SDS011;11619;50.140;8.518;2023-12-20T03:59:25;5.82;;;5.20;;
22904;SDS011;11619;50.140;8.518;2023-12-20T04:01:52;5.32;;;4.82;;
22904;SDS011;11619;50.140;8.518;2023-12-20T04:04:18;6.68;;;5.55;;
22904;SDS011;11619;50.140;8.518;2023-12-20T04:06:45;7.03;;;5.25;;
22904;SDS011;11619;50.140;8.518;2023-12-20T04:09:11;5.47;;;4.72;;
22904;SDS011;11619;50.140;8.518;2023-12-20T04:11:38;5.40;;;4.90;;
22904;SDS011;11619;50.140;8.518;2023-12-20T04:14:04;8.82;;;5.40;;
22904;SDS011;11619;50.140;8.518;2023-12-20T04:16:31;5.35;;;4.85;;
22904;SDS011;11619;50.140;8.518;2023-12-20T04:18:57;6.10;;;5.50;;
22904;SDS011;11619;50.140;8.518;2023-12-20T04:21:24;7.05;;;5.35;;
22904;SDS011;11619;50.140;8.518;2023-12-20T04:23:50;6.60;;;5.80;;
22904;SDS011;11619;50.140;8.518;2023-12-20T04:26:17;5.90;;;5.30;;
22904;SDS011;11619;50.140;8.518;2023-12-20T04:28:43;6.80;;;6.10;;
22904;SDS011;11619;50.140;8.518;2023-12-20T04:31:10;8.70;;;6.22;;
22904;SDS011;11619;50.140;8.518;2023-12-20T04:33:36;6.13;;;5.53;;
22904;SDS011;11619;50.140;8.518;2023-12-20T04:36:03;6.05;;;5.47;;
22904;SDS011;11619;50.140;8.518;2023-12-20T04:38:30;6.07;;;5.47;;
22904;SDS011;11619;50.140;8.518;2023-12-20T04:40:57;10.02;;;5.68;;
22904;SDS011;11619;50.140;8.518;2023-12-20T04:43:23;6.00;;;5.40;;
22904;SDS011;11619;50.140;8.518;2023-12-20T04:45:51;6.90;;;5.40;;
22904;SDS011;11619;50.140;8.518;2023-12-20T04:48:17;5.25;;;4.85;;
22904;SDS011;11619;50.140;8.518;2023-12-20T04:50:44;6.03;;;5.32;;
22904;SDS011;11619;50.140;8.518;2023-12-20T04:53:10;5.75;;;5.22;;
22904;SDS011;11619;50.140;8.518;2023-12-20T04:55:37;6.05;;;5.43;;
22904;SDS011;11619;50.140;8.518;2023-12-20T04:58:03;6.35;;;5.03;;
22904;SDS011;11619;50.140;8.518;2023-12-20T05:00:30;5.65;;;5.10;;
22904;SDS011;11619;50.140;8.518;2023-12-20T05:02:56;6.55;;;5.90;;
22904;SDS011;11619;50.140;8.518;2023-12-20T05:05:23;7.78;;;5.35;;
22904;SDS011;11619;50.140;8.518;2023-12-20T05:07:49;6.93;;;5.55;;
22904;SDS011;11619;50.140;8.518;2023-12-20T05:10:16;8.80;;;5.60;;
22904;SDS011;11619;50.140;8.518;2023-12-20T05:12:43;6.10;;;4.63;;
22904;SDS011;11619;50.140;8.518;2023-12-20T05:15:09;8.00;;;4.53;;
22904;SDS011;11619;50.140;8.518;2023-12-20T05:17:35;6.18;;;5.00;;
22904;SDS011;11619;50.140;8.518;2023-12-20T05:20:02;8.05;;;4.68;;
22904;SDS011;11619;50.140;8.518;2023-12-20T05:22:29;7.80;;;4.55;;
22904;SDS011;11619;50.140;8.518;2023-12-20T05:24:55;6.57;;;4.10;;
22904;SDS011;11619;50.140;8.518;2023-12-20T05:27:22;5.60;;;4.07;;
22904;SDS011;11619;50.140;8.518;2023-12-20T05:29:48;7.32;;;3.95;;
22904;SDS011;11619;50.140;8.518;2023-12-20T05:32:16;9.52;;;3.95;;
22904;SDS011;11619;50.140;8.518;2023-12-20T05:34:43;6.25;;;4.07;;
22904;SDS011;11619;50.140;8.518;2023-12-20T05:37:09;4.20;;;3.58;;
22904;SDS011;11619;50.140;8.518;2023-12-20T05:39:36;5.60;;;2.83;;
22904;SDS011;11619;50.140;8.518;2023-12-20T05:42:03;5.00;;;3.20;;
22904;SDS011;11619;50.140;8.518;2023-12-20T05:44:29;5.03;;;2.90;;
22904;SDS011;11619;50.140;8.518;2023-12-20T05:46:56;5.32;;;3.40;;
22904;SDS011;11619;50.140;8.518;2023-12-20T05:49:22;3.10;;;2.63;;
22904;SDS011;11619;50.140;8.518;2023-12-20T05:51:49;5.80;;;2.53;;
22904;SDS011;11619;50.140;8.518;2023-12-20T05:54:17;5.80;;;2.10;;
22904;SDS011;11619;50.140;8.518;2023-12-20T05:56:43;7.13;;;2.92;;
22904;SDS011;11619;50.140;8.518;2023-12-20T05:59:10;7.05;;;2.75;;
22904;SDS011;11619;50.140;8.518;2023-12-20T06:01:36;5.50;;;2.53;;
22904;SDS011;11619;50.140;8.518;2023-12-20T06:04:03;8.60;;;2.65;;
22904;SDS011;11619;50.140;8.518;2023-12-20T06:06:30;7.57;;;2.45;;
22904;SDS011;11619;50.140;8.518;2023-12-20T06:08:57;4.40;;;2.20;;
22904;SDS011;11619;50.140;8.518;2023-12-20T06:11:23;6.65;;;2.10;;
22904;SDS011;11619;50.140;8.518;2023-12-20T06:13:50;8.80;;;2.40;;
22904;SDS011;11619;50.140;8.518;2023-12-20T06:16:19;7.18;;;2.42;;
22904;SDS011;11619;50.140;8.518;2023-12-20T06:18:45;10.38;;;2.38;;
22904;SDS011;11619;50.140;8.518;2023-12-20T06:21:12;7.78;;;2.70;;
22904;SDS011;11619;50.140;8.518;2023-12-20T06:23:39;9.77;;;3.00;;
22904;SDS011;11619;50.140;8.518;2023-12-20T06:26:05;6.25;;;3.17;;
22904;SDS011;11619;50.140;8.518;2023-12-20T06:28:32;11.38;;;3.05;;
22904;SDS011;11619;50.140;8.518;2023-12-20T06:30:58;11.85;;;3.00;;
22904;SDS011;11619;50.140;8.518;2023-12-20T06:33:26;7.95;;;2.70;;
22904;SDS011;11619;50.140;8.518;2023-12-20T06:35:53;4.45;;;2.15;;
22904;SDS011;11619;50.140;8.518;2023-12-20T06:38:20;7.82;;;2.50;;
22904;SDS011;11619;50.140;8.518;2023-12-20T06:40:46;9.27;;;2.97;;
22904;SDS011;11619;50.140;8.518;2023-12-20T06:43:13;4.68;;;2.97;;
22904;SDS011;11619;50.140;8.518;2023-12-20T06:48:23;11.40;;;3.75;;
22904;SDS011;11619;50.140;8.518;2023-12-20T06:50:50;9.13;;;3.80;;
22904;SDS011;11619;50.140;8.518;2023-12-20T06:53:16;10.30;;;4.40;;
22904;SDS011;11619;50.140;8.518;2023-12-20T06:55:43;9.00;;;3.92;;
22904;SDS011;11619;50.140;8.518;2023-12-20T06:58:09;6.40;;;3.28;;
22904;SDS011;11619;50.140;8.518;2023-12-20T07:00:36;8.00;;;2.85;;
22904;SDS011;11619;50.140;8.518;2023-12-20T07:03:02;5.75;;;3.00;;
22904;SDS011;11619;50.140;8.518;2023-12-20T07:05:29;7.45;;;2.92;;
22904;SDS011;11619;50.140;8.518;2023-12-20T07:07:56;9.27;;;3.35;;
22904;SDS011;11619;50.140;8.518;2023-12-20T07:10:22;8.20;;;3.22;;
22904;SDS011;11619;50.140;8.518;2023-12-20T07:12:49;8.82;;;4.05;;
22904;SDS011;11619;50.140;8.518;2023-12-20T07:15:17;5.75;;;3.20;;
22904;SDS011;11619;50.140;8.518;2023-12-20T07:17:43;16.13;;;4.25;;
22904;SDS011;11619;50.140;8.518;2023-12-20T07:20:11;7.15;;;3.88;;
22904;SDS011;11619;50.140;8.518;2023-12-20T07:22:38;12.68;;;4.13;;
22904;SDS011;11619;50.140;8.518;2023-12-20T07:25:05;6.10;;;3.50;;
22904;SDS011;11619;50.140;8.518;2023-12-20T07:27:32;11.63;;;5.90;;
22904;SDS011;11619;50.140;8.518;2023-12-20T07:29:59;10.65;;;5.68;;
22904;SDS011;11619;50.140;8.518;2023-12-20T07:32:25;9.18;;;4.90;;
22904;SDS011;11619;50.140;8.518;2023-12-20T07:34:52;10.85;;;3.97;;
22904;SDS011;11619;50.140;8.518;2023-12-20T07:37:20;4.72;;;3.45;;
22904;SDS011;11619;50.140;8.518;2023-12-20T07:39:47;7.70;;;3.17;;
22904;SDS011;11619;50.140;8.518;2023-12-20T07:42:13;7.85;;;3.72;;
22904;SDS011;11619;50.140;8.518;2023-12-20T07:44:40;8.48;;;3.45;;
22904;SDS011;11619;50.140;8.518;2023-12-20T07:47:06;7.03;;;3.80;;
22904;SDS011;11619;50.140;8.518;2023-12-20T07:49:33;11.95;;;3.85;;
22904;SDS011;11619;50.140;8.518;2023-12-20T07:51:59;7.40;;;3.30;;
22904;SDS011;11619;50.140;8.518;2023-12-20T07:54:26;8.88;;;3.92;;
22904;SDS011;11619;50.140;8.518;2023-12-20T07:56:52;10.43;;;3.53;;
22904;SDS011;11619;50.140;8.518;2023-12-20T07:59:19;8.23;;;3.20;;
22904;SDS011;11619;50.140;8.518;2023-12-20T08:01:57;9.82;;;3.65;;
22904;SDS011;11619;50.140;8.518;2023-12-20T08:04:24;8.65;;;3.00;;
22904;SDS011;11619;50.140;8.518;2023-12-20T08:06:51;6.78;;;3.72;;
22904;SDS011;11619;50.140;8.518;2023-12-20T08:09:18;8.30;;;3.35;;
22904;SDS011;11619;50.140;8.518;2023-12-20T08:11:45;7.75;;;2.83;;
22904;SDS011;11619;50.140;8.518;2023-12-20T08:14:15;5.75;;;2.88;;
22904;SDS011;11619;50.140;8.518;2023-12-20T08:16:44;9.18;;;3.53;;
22904;SDS011;11619;50.140;8.518;2023-12-20T08:19:10;6.18;;;3.17;;
22904;SDS011;11619;50.140;8.518;2023-12-20T08:21:37;11.57;;;4.00;;
22904;SDS011;11619;50.140;8.518;2023-12-20T08:24:04;10.88;;;3.58;;
22904;SDS011;11619;50.140;8.518;2023-12-20T08:26:32;9.63;;;3.28;;
22904;SDS011;11619;50.140;8.518;2023-12-20T08:28:58;7.07;;;3.30;;
22904;SDS011;11619;50.140;8.518;2023-12-20T08:31:27;8.52;;;4.05;;
22904;SDS011;11619;50.140;8.518;2023-12-20T08:33:54;9.23;;;3.60;;
22904;SDS011;11619;50.140;8.518;2023-12-20T08:36:21;7.75;;;3.45;;
22904;SDS011;11619;50.140;8.518;2023-12-20T08:38:48;10.48;;;3.22;;
22904;SDS011;11619;50.140;8.518;2023-12-20T08:41:16;6.57;;;3.25;;
22904;SDS011;11619;50.140;8.518;2023-12-20T08:43:43;9.20;;;3.13;;
22904;SDS011;11619;50.140;8.518;2023-12-20T08:46:10;11.55;;;3.28;;
22904;SDS011;11619;50.140;8.518;2023-12-20T08:48:36;6.82;;;3.13;;
22904;SDS011;11619;50.140;8.518;2023-12-20T08:51:04;5.45;;;2.83;;
22904;SDS011;11619;50.140;8.518;2023-12-20T08:53:30;12.25;;;3.22;;
22904;SDS011;11619;50.140;8.518;2023-12-20T08:55:57;7.50;;;2.72;;
22904;SDS011;11619;50.140;8.518;2023-12-20T08:58:27;5.95;;;2.75;;
22904;SDS011;11619;50.140;8.518;2023-12-20T09:00:54;7.22;;;3.08;;
22904;SDS011;11619;50.140;8.518;2023-12-20T09:03:21;17.33;;;3.15;;
22904;SDS011;11619;50.140;8.518;2023-12-20T09:05:47;10.80;;;3.05;;
22904;SDS011;11619;50.140;8.518;2023-12-20T09:08:14;6.00;;;2.35;;
22904;SDS011;11619;50.140;8.518;2023-12-20T09:10:40;8.82;;;2.65;;
22904;SDS011;11619;50.140;8.518;2023-12-20T09:13:06;6.25;;;2.47;;
22904;SDS011;11619;50.140;8.518;2023-12-20T09:15:33;11.25;;;2.53;;
22904;SDS011;11619;50.140;8.518;2023-12-20T09:18:02;6.70;;;2.33;;
22904;SDS011;11619;50.140;8.518;2023-12-20T09:20:30;10.68;;;3.15;;
22904;SDS011;11619;50.140;8.518;2023-12-20T09:22:56;12.48;;;2.95;;
22904;SDS011;11619;50.140;8.518;2023-12-20T09:25:23;8.32;;;3.28;;
22904;SDS011;11619;50.140;8.518;2023-12-20T09:27:50;10.60;;;3.55;;
22904;SDS011;11619;50.140;8.518;2023-12-20T09:30:16;5.40;;;2.67;;
22904;SDS011;11619;50.140;8.518;2023-12-20T09:32:52;8.57;;;2.67;;
22904;SDS011;11619;50.140;8.518;2023-12-20T09:35:19;8.32;;;2.40;;
22904;SDS011;11619;50.140;8.518;2023-12-20T09:37:46;13.50;;;3.10;;
22904;SDS011;11619;50.140;8.518;2023-12-20T09:40:13;9.55;;;2.90;;
22904;SDS011;11619;50.140;8.518;2023-12-20T09:45:15;7.32;;;3.20;;
22904;SDS011;11619;50.140;8.518;2023-12-20T09:47:45;8.52;;;3.53;;
22904;SDS011;11619;50.140;8.518;2023-12-20T09:50:12;10.90;;;2.90;;
22904;SDS011;11619;50.140;8.518;2023-12-20T09:52:39;10.35;;;2.90;;
22904;SDS011;11619;50.140;8.518;2023-12-20T09:55:07;8.63;;;2.78;;
22904;SDS011;11619;50.140;8.518;2023-12-20T09:57:34;8.30;;;2.55;;
22904;SDS011;11619;50.140;8.518;2023-12-20T10:00:01;9.75;;;2.80;;
22904;SDS011;11619;50.140;8.518;2023-12-20T10:02:27;7.93;;;2.78;;
22904;SDS011;11619;50.140;8.518;2023-12-20T10:04:55;8.23;;;3.05;;
22904;SDS011;11619;50.140;8.518;2023-12-20T10:07:22;10.60;;;2.67;;
22904;SDS011;11619;50.140;8.518;2023-12-20T10:09:49;8.05;;;2.70;;
22904;SDS011;11619;50.140;8.518;2023-12-20T10:12:18;6.47;;;2.63;;
22904;SDS011;11619;50.140;8.518;2023-12-20T10:14:44;7.65;;;2.53;;
22904;SDS011;11619;50.140;8.518;2023-12-20T10:17:11;6.70;;;2.58;;
22904;SDS011;11619;50.140;8.518;2023-12-20T10:19:37;9.88;;;2.60;;
22904;SDS011;11619;50.140;8.518;2023-12-20T10:22:04;10.77;;;3.08;;
22904;SDS011;11619;50.140;8.518;2023-12-20T10:24:31;7.88;;;2.85;;
22904;SDS011;11619;50.140;8.518;2023-12-20T10:27:04;8.40;;;2.40;;
22904;SDS011;11619;50.140;8.518;2023-12-20T10:29:32;10.23;;;3.28;;
22904;SDS011;11619;50.140;8.518;2023-12-20T10:32:23;7.80;;;2.38;;
22904;SDS011;11619;50.140;8.518;2023-12-20T10:34:53;8.55;;;2.33;;
22904;SDS011;11619;50.140;8.518;2023-12-20T10:37:20;5.72;;;2.20;;
22904;SDS011;11619;50.140;8.518;2023-12-20T10:39:49;5.28;;;2.03;;
22904;SDS011;11619;50.140;8.518;2023-12-20T10:42:17;8.43;;;3.13;;
22904;SDS011;11619;50.140;8.518;2023-12-20T10:44:46;8.38;;;2.92;;
22904;SDS011;11619;50.140;8.518;2023-12-20T10:47:13;7.07;;;2.53;;
22904;SDS011;11619;50.140;8.518;2023-12-20T10:49:40;9.13;;;3.33;;
22904;SDS011;11619;50.140;8.518;2023-12-20T10:52:06;5.60;;;2.88;;
22904;SDS011;11619;50.140;8.518;2023-12-20T10:54:35;6.20;;;2.33;;
22904;SDS011;11619;50.140;8.518;2023-12-20T10:57:02;5.20;;;2.80;;
22904;SDS011;11619;50.140;8.518;2023-12-20T10:59:36;7.60;;;3.22;;
22904;SDS011;11619;50.140;8.518;2023-12-20T11:02:03;13.27;;;3.20;;
22904;SDS011;11619;50.140;8.518;2023-12-20T11:04:39;11.70;;;2.85;;
22904;SDS011;11619;50.140;8.518;2023-12-20T11:07:19;8.18;;;2.75;;
22904;SDS011;11619;50.140;8.518;2023-12-20T11:09:56;5.40;;;2.60;;
22904;SDS011;11619;50.140;8.518;2023-12-20T11:12:28;11.32;;;2.80;;
22904;SDS011;11619;50.140;8.518;2023-12-20T11:15:00;10.07;;;2.55;;
22904;SDS011;11619;50.140;8.518;2023-12-20T11:17:31;8.70;;;2.67;;
22904;SDS011;11619;50.140;8.518;2023-12-20T11:22:26;5.82;;;2.45;;
22904;SDS011;11619;50.140;8.518;2023-12-20T11:25:07;7.13;;;2.60;;
22904;SDS011;11619;50.140;8.518;2023-12-20T11:27:35;5.40;;;2.17;;
22904;SDS011;11619;50.140;8.518;2023-12-20T11:30:03;6.20;;;2.40;;
22904;SDS011;11619;50.140;8.518;2023-12-20T11:32:33;6.50;;;2.50;;
22904;SDS011;11619;50.140;8.518;2023-12-20T11:37:37;7.40;;;2.30;;
22904;SDS011;11619;50.140;8.518;2023-12-20T11:40:08;4.20;;;2.05;;
22904;SDS011;11619;50.140;8.518;2023-12-20T11:42:38;6.13;;;2.15;;
22904;SDS011;11619;50.140;8.518;2023-12-20T11:45:24;9.43;;;2.58;;
22904;SDS011;11619;50.140;8.518;2023-12-20T11:47:56;9.50;;;2.25;;
22904;SDS011;11619;50.140;8.518;2023-12-20T11:50:24;6.97;;;2.03;;
22904;SDS011;11619;50.140;8.518;2023-12-20T11:52:51;4.53;;;1.95;;
22904;SDS011;11619;50.140;8.518;2023-12-20T11:55:18;7.78;;;2.33;;
22904;SDS011;11619;50.140;8.518;2023-12-20T11:57:45;8.68;;;2.75;;
22904;SDS011;11619;50.140;8.518;2023-12-20T12:00:12;5.95;;;2.25;;
22904;SDS011;11619;50.140;8.518;2023-12-20T12:02:39;6.18;;;2.03;;
22904;SDS011;11619;50.140;8.518;2023-12-20T12:05:06;9.20;;;2.10;;
22904;SDS011;11619;50.140;8.518;2023-12-20T12:07:34;7.45;;;2.33;;
22904;SDS011;11619;50.140;8.518;2023-12-20T12:10:01;7.72;;;1.92;;
22904;SDS011;11619;50.140;8.518;2023-12-20T12:12:30;9.85;;;2.08;;
22904;SDS011;11619;50.140;8.518;2023-12-20T12:14:58;6.97;;;2.00;;
22904;SDS011;11619;50.140;8.518;2023-12-20T12:17:25;5.82;;;2.50;;
22904;SDS011;11619;50.140;8.518;2023-12-20T12:19:52;7.95;;;2.10;;
22904;SDS011;11619;50.140;8.518;2023-12-20T12:22:28;6.07;;;2.00;;
22904;SDS011;11619;50.140;8.518;2023-12-20T12:24:54;6.57;;;2.45;;
22904;SDS011;11619;50.140;8.518;2023-12-20T12:27:25;5.85;;;2.30;;
22904;SDS011;11619;50.140;8.518;2023-12-20T12:30:01;10.02;;;2.30;;
22904;SDS011;11619;50.140;8.518;2023-12-20T12:32:30;7.97;;;2.20;;
22904;SDS011;11619;50.140;8.518;2023-12-20T12:34:58;5.00;;;2.33;;
22904;SDS011;11619;50.140;8.518;2023-12-20T12:37:25;7.05;;;2.63;;
22904;SDS011;11619;50.140;8.518;2023-12-20T12:39:53;5.45;;;2.00;;
22904;SDS011;11619;50.140;8.518;2023-12-20T12:42:20;6.57;;;2.30;;
22904;SDS011;11619;50.140;8.518;2023-12-20T12:44:47;3.25;;;1.90;;
22904;SDS011;11619;50.140;8.518;2023-12-20T12:47:14;8.20;;;2.35;;
22904;SDS011;11619;50.140;8.518;2023-12-20T12:49:40;4.80;;;2.05;;
22904;SDS011;11619;50.140;8.518;2023-12-20T12:52:07;8.65;;;2.60;;
22904;SDS011;11619;50.140;8.518;2023-12-20T12:54:34;6.22;;;2.30;;
22904;SDS011;11619;50.140;8.518;2023-12-20T12:57:00;6.85;;;2.53;;
22904;SDS011;11619;50.140;8.518;2023-12-20T12:59:26;10.05;;;2.63;;
22904;SDS011;11619;50.140;8.518;2023-12-20T13:01:53;8.95;;;2.83;;
22904;SDS011;11619;50.140;8.518;2023-12-20T13:04:19;7.32;;;2.95;;
22904;SDS011;11619;50.140;8.518;2023-12-20T13:06:46;9.13;;;2.80;;
22904;SDS011;11619;50.140;8.518;2023-12-20T13:09:13;10.80;;;2.85;;
22904;SDS011;11619;50.140;8.518;2023-12-20T13:11:41;4.95;;;2.28;;
22904;SDS011;11619;50.140;8.518;2023-12-20T13:14:07;4.72;;;2.38;;
22904;SDS011;11619;50.140;8.518;2023-12-20T13:16:36;7.35;;;3.30;;
22904;SDS011;11619;50.140;8.518;2023-12-20T13:19:03;7.75;;;1.90;;
22904;SDS011;11619;50.140;8.518;2023-12-20T13:21:30;15.38;;;6.85;;
22904;SDS011;11619;50.140;8.518;2023-12-20T13:23:57;9.60;;;2.97;;
22904;SDS011;11619;50.140;8.518;2023-12-20T13:26:23;8.52;;;2.65;;
22904;SDS011;11619;50.140;8.518;2023-12-20T13:28:50;6.95;;;3.45;;
22904;SDS011;11619;50.140;8.518;2023-12-20T13:31:16;9.15;;;3.20;;
22904;SDS011;11619;50.140;8.518;2023-12-20T13:33:43;9.63;;;3.13;;
22904;SDS011;11619;50.140;8.518;2023-12-20T13:36:09;6.00;;;2.38;;
22904;SDS011;11619;50.140;8.518;2023-12-20T13:38:36;9.73;;;2.75;;
22904;SDS011;11619;50.140;8.518;2023-12-20T13:41:02;6.43;;;2.38;;
22904;SDS011;11619;50.140;8.518;2023-12-20T13:43:29;8.63;;;3.33;;
22904;SDS011;11619;50.140;8.518;2023-12-20T13:45:55;13.90;;;5.22;;
22904;SDS011;11619;50.140;8.518;2023-12-20T13:48:22;10.23;;;3.88;;
22904;SDS011;11619;50.140;8.518;2023-12-20T13:50:48;8.48;;;4.35;;
22904;SDS011;11619;50.140;8.518;2023-12-20T13:53:15;7.78;;;2.72;;
22904;SDS011;11619;50.140;8.518;2023-12-20T13:55:41;14.30;;;2.70;;
22904;SDS011;11619;50.140;8.518;2023-12-20T13:58:08;7.95;;;3.00;;
22904;SDS011;11619;50.140;8.518;2023-12-20T14:00:36;5.45;;;2.25;;
22904;SDS011;11619;50.140;8.518;2023-12-20T14:03:03;17.15;;;6.95;;
22904;SDS011;11619;50.140;8.518;2023-12-20T14:05:31;11.05;;;5.55;;
22904;SDS011;11619;50.140;8.518;2023-12-20T14:07:57;6.75;;;2.50;;
22904;SDS011;11619;50.140;8.518;2023-12-20T14:10:24;10.82;;;4.55;;
22904;SDS011;11619;50.140;8.518;2023-12-20T14:12:54;7.72;;;3.17;;
22904;SDS011;11619;50.140;8.518;2023-12-20T14:15:21;5.05;;;2.17;;
22904;SDS011;11619;50.140;8.518;2023-12-20T14:17:47;11.13;;;2.92;;
22904;SDS011;11619;50.140;8.518;2023-12-20T14:20:14;7.85;;;3.70;;
22904;SDS011;11619;50.140;8.518;2023-12-20T14:22:41;10.07;;;2.90;;
22904;SDS011;11619;50.140;8.518;2023-12-20T14:25:11;11.48;;;3.80;;
22904;SDS011;11619;50.140;8.518;2023-12-20T14:27:39;5.90;;;2.20;;
22904;SDS011;11619;50.140;8.518;2023-12-20T14:30:06;4.97;;;2.63;;
22904;SDS011;11619;50.140;8.518;2023-12-20T14:32:34;4.88;;;2.42;;
22904;SDS011;11619;50.140;8.518;2023-12-20T14:35:04;7.10;;;2.53;;
22904;SDS011;11619;50.140;8.518;2023-12-20T14:37:31;5.95;;;2.33;;
22904;SDS011;11619;50.140;8.518;2023-12-20T14:39:58;6.50;;;2.20;;
22904;SDS011;11619;50.140;8.518;2023-12-20T14:42:24;4.07;;;1.95;;
22904;SDS011;11619;50.140;8.518;2023-12-20T14:44:51;9.32;;;3.25;;
22904;SDS011;11619;50.140;8.518;2023-12-20T14:47:18;6.38;;;2.05;;
22904;SDS011;11619;50.140;8.518;2023-12-20T14:49:44;4.15;;;1.85;;
22904;SDS011;11619;50.140;8.518;2023-12-20T14:52:11;4.50;;;2.00;;
22904;SDS011;11619;50.140;8.518;2023-12-20T14:54:38;4.88;;;1.88;;
22904;SDS011;11619;50.140;8.518;2023-12-20T14:57:04;4.28;;;2.05;;